sensor_id;sensor_type;location;lat;lon;timestamp;pressure;altitude;pressure_sealevel;temperature;humidity
64388;BME280;50709;52.648;4.764;2024-02-26T00:00:48;100174.72;;;11.22;69.55
64388;BME280;50709;52.648;4.764;2024-02-26T00:03:13;100165.09;;;11.27;70.57
64388;BME280;50709;52.648;4.764;2024-02-26T00:05:39;100185.88;;;11.38;70.49
64388;BME280;50709;52.648;4.764;2024-02-26T00:08:04;100175.78;;;11.06;70.60
64388;BME280;50709;52.648;4.764;2024-02-26T00:10:31;100188.19;;;11.63;71.38
64388;BME280;50709;52.648;4.764;2024-02-26T00:12:57;100193.63;;;11.48;71.44
64388;BME280;50709;52.648;4.764;2024-02-26T00:15:25;100211.78;;;10.73;70.68
64388;BME280;50709;52.648;4.764;2024-02-26T00:18:11;100205.44;;;11.02;72.22
64388;BME280;50709;52.648;4.764;2024-02-26T00:20:36;100198.41;;;11.08;71.71
64388;BME280;50709;52.648;4.764;2024-02-26T00:23:02;100207.38;;;10.83;69.48
64388;BME280;50709;52.648;4.764;2024-02-26T00:25:27;100207.84;;;11.22;72.10
64388;BME280;50709;52.648;4.764;2024-02-26T00:28:13;100209.91;;;10.92;72.24
64388;BME280;50709;52.648;4.764;2024-02-26T00:30:38;100213.16;;;9.98;70.22
64388;BME280;50709;52.648;4.764;2024-02-26T00:33:04;100220.59;;;10.61;72.94
64388;BME280;50709;52.648;4.764;2024-02-26T00:35:29;100227.38;;;10.81;70.28
64388;BME280;50709;52.648;4.764;2024-02-26T00:37:57;100223.88;;;10.85;70.82
64388;BME280;50709;52.648;4.764;2024-02-26T00:40:28;100222.75;;;11.14;72.90
64388;BME280;50709;52.648;4.764;2024-02-26T00:42:54;100226.41;;;10.94;70.60
64388;BME280;50709;52.648;4.764;2024-02-26T00:45:19;100224.91;;;10.67;71.98
64388;BME280;50709;52.648;4.764;2024-02-26T00:47:45;100234.44;;;10.72;70.20
64388;BME280;50709;52.648;4.764;2024-02-26T00:50:13;100230.00;;;10.84;72.38
64388;BME280;50709;52.648;4.764;2024-02-26T00:52:38;100231.31;;;11.26;70.93
64388;BME280;50709;52.648;4.764;2024-02-26T00:55:06;100241.97;;;11.06;71.48
64388;BME280;50709;52.648;4.764;2024-02-26T00:57:52;100222.19;;;11.63;70.87
64388;BME280;50709;52.648;4.764;2024-02-26T01:00:17;100233.09;;;11.21;71.99
64388;BME280;50709;52.648;4.764;2024-02-26T01:02:43;100225.31;;;11.18;70.80
64388;BME280;50709;52.648;4.764;2024-02-26T01:05:28;100232.78;;;11.52;70.26
64388;BME280;50709;52.648;4.764;2024-02-26T01:07:54;100226.72;;;11.50;70.75
64388;BME280;50709;52.648;4.764;2024-02-26T01:10:21;100231.03;;;11.53;69.27
64388;BME280;50709;52.648;4.764;2024-02-26T01:13:26;100239.78;;;11.47;69.44
64388;BME280;50709;52.648;4.764;2024-02-26T01:16:11;100234.13;;;11.05;70.97
64388;BME280;50709;52.648;4.764;2024-02-26T01:18:58;100235.09;;;10.98;69.87
64388;BME280;50709;52.648;4.764;2024-02-26T01:21:23;100244.56;;;11.09;69.29
64388;BME280;50709;52.648;4.764;2024-02-26T01:23:49;100244.16;;;10.52;69.76
64388;BME280;50709;52.648;4.764;2024-02-26T01:26:14;100248.22;;;10.90;72.03
64388;BME280;50709;52.648;4.764;2024-02-26T01:28:42;100246.34;;;11.01;70.34
64388;BME280;50709;52.648;4.764;2024-02-26T01:31:09;100255.28;;;10.80;71.72
64388;BME280;50709;52.648;4.764;2024-02-26T01:33:36;100248.00;;;11.11;70.38
64388;BME280;50709;52.648;4.764;2024-02-26T01:36:21;100260.34;;;10.97;70.16
64388;BME280;50709;52.648;4.764;2024-02-26T01:38:46;100257.00;;;10.80;71.06
64388;BME280;50709;52.648;4.764;2024-02-26T01:41:13;100255.44;;;10.57;71.56
64388;BME280;50709;52.648;4.764;2024-02-26T01:43:39;100254.28;;;10.90;71.84
64388;BME280;50709;52.648;4.764;2024-02-26T01:46:06;100244.72;;;10.92;71.41
64388;BME280;50709;52.648;4.764;2024-02-26T01:48:35;100256.75;;;11.12;69.35
64388;BME280;50709;52.648;4.764;2024-02-26T01:51:20;100259.91;;;10.41;70.59
64388;BME280;50709;52.648;4.764;2024-02-26T01:53:46;100269.97;;;10.92;71.25
64388;BME280;50709;52.648;4.764;2024-02-26T01:56:12;100267.34;;;10.93;70.15
64388;BME280;50709;52.648;4.764;2024-02-26T01:59:19;100258.69;;;10.87;70.14
64388;BME280;50709;52.648;4.764;2024-02-26T02:01:48;100242.94;;;10.96;69.72
64388;BME280;50709;52.648;4.764;2024-02-26T02:04:18;100261.19;;;11.01;70.11
64388;BME280;50709;52.648;4.764;2024-02-26T02:06:48;100259.00;;;10.45;70.44
64388;BME280;50709;52.648;4.764;2024-02-26T02:09:15;100274.59;;;10.57;70.52
64388;BME280;50709;52.648;4.764;2024-02-26T02:11:41;100268.59;;;10.40;70.37
64388;BME280;50709;52.648;4.764;2024-02-26T02:14:07;100265.63;;;10.91;71.21
64388;BME280;50709;52.648;4.764;2024-02-26T02:16:33;100264.03;;;10.71;69.03
64388;BME280;50709;52.648;4.764;2024-02-26T02:19:00;100273.44;;;10.92;69.73
64388;BME280;50709;52.648;4.764;2024-02-26T02:21:45;100263.72;;;11.08;70.33
64388;BME280;50709;52.648;4.764;2024-02-26T02:24:11;100268.91;;;11.13;69.78
64388;BME280;50709;52.648;4.764;2024-02-26T02:26:40;100263.84;;;10.93;69.87
64388;BME280;50709;52.648;4.764;2024-02-26T02:29:25;100266.47;;;10.94;70.64
64388;BME280;50709;52.648;4.764;2024-02-26T02:31:58;100285.69;;;10.86;70.76
64388;BME280;50709;52.648;4.764;2024-02-26T02:34:45;100281.44;;;10.74;70.79
64388;BME280;50709;52.648;4.764;2024-02-26T02:37:54;100287.47;;;10.84;71.07
64388;BME280;50709;52.648;4.764;2024-02-26T02:40:19;100288.41;;;10.73;69.23
64388;BME280;50709;52.648;4.764;2024-02-26T02:42:45;100298.66;;;10.97;70.33
64388;BME280;50709;52.648;4.764;2024-02-26T02:45:11;100296.19;;;10.80;70.96
64388;BME280;50709;52.648;4.764;2024-02-26T02:47:37;100297.00;;;10.85;70.94
64388;BME280;50709;52.648;4.764;2024-02-26T02:50:04;100309.31;;;10.69;69.65
64388;BME280;50709;52.648;4.764;2024-02-26T02:52:30;100308.47;;;10.68;70.84
64388;BME280;50709;52.648;4.764;2024-02-26T02:54:55;100303.41;;;10.40;70.93
64388;BME280;50709;52.648;4.764;2024-02-26T02:57:41;100305.97;;;10.50;69.75
64388;BME280;50709;52.648;4.764;2024-02-26T03:00:09;100321.81;;;10.05;69.55
64388;BME280;50709;52.648;4.764;2024-02-26T03:02:34;100316.22;;;10.84;71.15
64388;BME280;50709;52.648;4.764;2024-02-26T03:05:05;100316.09;;;10.93;69.78
64388;BME280;50709;52.648;4.764;2024-02-26T03:07:31;100319.72;;;10.76;70.58
64388;BME280;50709;52.648;4.764;2024-02-26T03:09:58;100312.91;;;10.54;70.48
64388;BME280;50709;52.648;4.764;2024-02-26T03:12:23;100317.09;;;10.78;70.98
64388;BME280;50709;52.648;4.764;2024-02-26T03:14:49;100308.34;;;10.85;70.83
64388;BME280;50709;52.648;4.764;2024-02-26T03:17:14;100315.38;;;10.77;70.18
64388;BME280;50709;52.648;4.764;2024-02-26T03:19:40;100317.97;;;10.80;70.79
64388;BME280;50709;52.648;4.764;2024-02-26T03:22:25;100327.78;;;10.27;70.55
64388;BME280;50709;52.648;4.764;2024-02-26T03:24:52;100308.59;;;10.47;71.46
64388;BME280;50709;52.648;4.764;2024-02-26T03:27:17;100329.47;;;10.47;70.47
64388;BME280;50709;52.648;4.764;2024-02-26T03:29:43;100317.22;;;10.58;70.64
64388;BME280;50709;52.648;4.764;2024-02-26T03:32:09;100284.22;;;10.49;70.90
64388;BME280;50709;52.648;4.764;2024-02-26T03:34:35;100331.03;;;10.80;69.85
64388;BME280;50709;52.648;4.764;2024-02-26T03:37:01;100343.41;;;10.46;71.50
64388;BME280;50709;52.648;4.764;2024-02-26T03:39:26;100347.84;;;10.19;69.97
64388;BME280;50709;52.648;4.764;2024-02-26T03:41:52;100350.06;;;10.98;70.57
64388;BME280;50709;52.648;4.764;2024-02-26T03:44:17;100345.09;;;10.51;71.53
64388;BME280;50709;52.648;4.764;2024-02-26T03:46:43;100358.13;;;10.59;71.11
64388;BME280;50709;52.648;4.764;2024-02-26T03:49:08;100371.50;;;9.68;71.76
64388;BME280;50709;52.648;4.764;2024-02-26T03:51:35;100354.72;;;10.43;70.46
64388;BME280;50709;52.648;4.764;2024-02-26T03:54:01;100363.47;;;10.42;71.48
64388;BME280;50709;52.648;4.764;2024-02-26T03:56:27;100373.19;;;9.87;71.75
64388;BME280;50709;52.648;4.764;2024-02-26T03:58:53;100362.63;;;10.26;71.16
64388;BME280;50709;52.648;4.764;2024-02-26T04:01:18;100350.34;;;10.50;70.47
64388;BME280;50709;52.648;4.764;2024-02-26T04:03:45;100372.03;;;10.64;70.35
64388;BME280;50709;52.648;4.764;2024-02-26T04:06:31;100351.13;;;10.70;70.80
64388;BME280;50709;52.648;4.764;2024-02-26T04:09:01;100373.69;;;10.79;69.74
64388;BME280;50709;52.648;4.764;2024-02-26T04:11:29;100380.00;;;10.29;68.96
64388;BME280;50709;52.648;4.764;2024-02-26T04:13:54;100386.09;;;10.40;70.12
64388;BME280;50709;52.648;4.764;2024-02-26T04:16:20;100393.88;;;10.34;70.48
64388;BME280;50709;52.648;4.764;2024-02-26T04:18:47;100389.44;;;10.65;71.22
64388;BME280;50709;52.648;4.764;2024-02-26T04:21:14;100367.72;;;10.60;69.49
64388;BME280;50709;52.648;4.764;2024-02-26T04:23:39;100385.09;;;10.64;69.76
64388;BME280;50709;52.648;4.764;2024-02-26T04:26:06;100394.50;;;10.90;68.56
64388;BME280;50709;52.648;4.764;2024-02-26T04:28:32;100387.69;;;10.70;70.01
64388;BME280;50709;52.648;4.764;2024-02-26T04:31:17;100379.78;;;10.78;69.89
64388;BME280;50709;52.648;4.764;2024-02-26T04:34:02;100394.50;;;10.96;69.13
64388;BME280;50709;52.648;4.764;2024-02-26T04:36:29;100399.78;;;10.85;70.61
64388;BME280;50709;52.648;4.764;2024-02-26T04:38:59;100395.41;;;10.86;69.92
64388;BME280;50709;52.648;4.764;2024-02-26T04:41:26;100394.50;;;10.90;70.28
64388;BME280;50709;52.648;4.764;2024-02-26T04:43:51;100402.22;;;11.11;68.45
64388;BME280;50709;52.648;4.764;2024-02-26T04:46:38;100400.66;;;10.84;69.83
64388;BME280;50709;52.648;4.764;2024-02-26T04:49:03;100409.50;;;10.57;69.45
64388;BME280;50709;52.648;4.764;2024-02-26T04:51:31;100423.53;;;10.23;69.11
64388;BME280;50709;52.648;4.764;2024-02-26T04:54:17;100409.44;;;10.71;69.59
64388;BME280;50709;52.648;4.764;2024-02-26T04:56:44;100427.84;;;10.32;70.03
64388;BME280;50709;52.648;4.764;2024-02-26T04:59:09;100418.25;;;10.47;71.37
64388;BME280;50709;52.648;4.764;2024-02-26T05:01:35;100416.31;;;10.86;69.53
64388;BME280;50709;52.648;4.764;2024-02-26T05:04:20;100418.06;;;10.81;69.14
64388;BME280;50709;52.648;4.764;2024-02-26T05:06:50;100428.50;;;10.88;69.26
64388;BME280;50709;52.648;4.764;2024-02-26T05:09:18;100424.13;;;10.92;69.10
64388;BME280;50709;52.648;4.764;2024-02-26T05:11:44;100427.84;;;10.41;68.79
64388;BME280;50709;52.648;4.764;2024-02-26T05:14:10;100431.94;;;10.90;69.32
64388;BME280;50709;52.648;4.764;2024-02-26T05:16:36;100444.41;;;10.23;70.39
64388;BME280;50709;52.648;4.764;2024-02-26T05:19:01;100453.00;;;10.64;70.35
64388;BME280;50709;52.648;4.764;2024-02-26T05:21:47;100453.03;;;10.55;70.25
64388;BME280;50709;52.648;4.764;2024-02-26T05:24:14;100450.44;;;10.47;68.54
64388;BME280;50709;52.648;4.764;2024-02-26T05:26:40;100460.97;;;10.18;69.13
64388;BME280;50709;52.648;4.764;2024-02-26T05:29:26;100459.22;;;10.15;71.27
64388;BME280;50709;52.648;4.764;2024-02-26T05:32:31;100472.22;;;10.27;69.93
64388;BME280;50709;52.648;4.764;2024-02-26T05:34:56;100453.97;;;10.23;70.43
64388;BME280;50709;52.648;4.764;2024-02-26T05:37:23;100473.97;;;10.35;69.69
64388;BME280;50709;52.648;4.764;2024-02-26T05:39:49;100475.75;;;10.11;70.17
64388;BME280;50709;52.648;4.764;2024-02-26T05:42:14;100481.81;;;10.21;69.91
64388;BME280;50709;52.648;4.764;2024-02-26T05:44:40;100481.75;;;10.47;69.90
64388;BME280;50709;52.648;4.764;2024-02-26T05:47:05;100482.63;;;10.54;69.17
64388;BME280;50709;52.648;4.764;2024-02-26T05:49:30;100477.50;;;10.14;69.00
64388;BME280;50709;52.648;4.764;2024-02-26T05:51:59;100502.69;;;10.49;69.37
64388;BME280;50709;52.648;4.764;2024-02-26T05:54:24;100492.13;;;10.75;69.07
64388;BME280;50709;52.648;4.764;2024-02-26T05:56:52;100494.00;;;10.20;69.89
64388;BME280;50709;52.648;4.764;2024-02-26T05:59:40;100494.81;;;10.52;68.31
64388;BME280;50709;52.648;4.764;2024-02-26T06:02:06;100502.72;;;10.18;68.55
64388;BME280;50709;52.648;4.764;2024-02-26T06:04:31;100507.91;;;10.44;69.59
64388;BME280;50709;52.648;4.764;2024-02-26T06:06:57;100508.69;;;10.63;68.25
64388;BME280;50709;52.648;4.764;2024-02-26T06:09:22;100506.13;;;10.34;69.14
64388;BME280;50709;52.648;4.764;2024-02-26T06:11:48;100527.91;;;10.37;70.54
64388;BME280;50709;52.648;4.764;2024-02-26T06:14:13;100527.69;;;11.04;69.43
64388;BME280;50709;52.648;4.764;2024-02-26T06:16:43;100533.88;;;10.80;67.42
64388;BME280;50709;52.648;4.764;2024-02-26T06:19:08;100528.53;;;11.15;68.13
64388;BME280;50709;52.648;4.764;2024-02-26T06:21:54;100525.16;;;10.90;69.67
64388;BME280;50709;52.648;4.764;2024-02-26T06:24:27;100531.22;;;10.95;67.96
64388;BME280;50709;52.648;4.764;2024-02-26T06:26:53;100534.50;;;11.34;67.29
64388;BME280;50709;52.648;4.764;2024-02-26T06:29:18;100536.97;;;11.62;66.28
64388;BME280;50709;52.648;4.764;2024-02-26T06:31:44;100546.44;;;11.74;64.58
64388;BME280;50709;52.648;4.764;2024-02-26T06:34:09;100542.66;;;12.15;64.76
64388;BME280;50709;52.648;4.764;2024-02-26T06:36:34;100560.84;;;10.99;64.58
64388;BME280;50709;52.648;4.764;2024-02-26T06:39:00;100559.38;;;11.92;65.62
64388;BME280;50709;52.648;4.764;2024-02-26T06:41:25;100563.28;;;11.28;65.35
64388;BME280;50709;52.648;4.764;2024-02-26T06:43:55;100558.84;;;11.44;65.98
64388;BME280;50709;52.648;4.764;2024-02-26T06:46:21;100555.28;;;11.57;63.63
64388;BME280;50709;52.648;4.764;2024-02-26T06:48:48;100564.22;;;11.13;65.73
64388;BME280;50709;52.648;4.764;2024-02-26T06:51:14;100556.13;;;11.61;63.95
64388;BME280;50709;52.648;4.764;2024-02-26T06:53:39;100568.38;;;11.56;63.96
64388;BME280;50709;52.648;4.764;2024-02-26T06:56:05;100567.47;;;11.61;65.33
64388;BME280;50709;52.648;4.764;2024-02-26T06:58:30;100585.19;;;11.02;66.05
64388;BME280;50709;52.648;4.764;2024-02-26T07:00:56;100582.59;;;11.05;65.82
64388;BME280;50709;52.648;4.764;2024-02-26T07:03:21;100579.00;;;11.25;66.02
64388;BME280;50709;52.648;4.764;2024-02-26T07:05:48;100582.53;;;11.15;66.33
64388;BME280;50709;52.648;4.764;2024-02-26T07:08:13;100603.44;;;11.11;65.62
64388;BME280;50709;52.648;4.764;2024-02-26T07:10:39;100595.66;;;11.07;63.90
64388;BME280;50709;52.648;4.764;2024-02-26T07:13:04;100599.94;;;11.23;66.14
64388;BME280;50709;52.648;4.764;2024-02-26T07:15:30;100594.66;;;11.34;65.18
64388;BME280;50709;52.648;4.764;2024-02-26T07:17:55;100608.72;;;10.99;63.65
64388;BME280;50709;52.648;4.764;2024-02-26T07:20:21;100600.66;;;11.45;65.00
64388;BME280;50709;52.648;4.764;2024-02-26T07:22:46;100607.56;;;11.60;65.76
64388;BME280;50709;52.648;4.764;2024-02-26T07:25:12;100626.03;;;11.31;66.37
64388;BME280;50709;52.648;4.764;2024-02-26T07:27:39;100614.72;;;11.27;65.28
64388;BME280;50709;52.648;4.764;2024-02-26T07:30:06;100613.88;;;11.15;66.35
64388;BME280;50709;52.648;4.764;2024-02-26T07:32:33;100580.13;;;10.48;66.96
64388;BME280;50709;52.648;4.764;2024-02-26T07:34:58;100610.47;;;11.02;65.40
64388;BME280;50709;52.648;4.764;2024-02-26T07:37:23;100600.91;;;10.96;65.10
64388;BME280;50709;52.648;4.764;2024-02-26T07:39:49;100623.66;;;10.48;65.14
64388;BME280;50709;52.648;4.764;2024-02-26T07:42:15;100621.88;;;10.64;67.35
64388;BME280;50709;52.648;4.764;2024-02-26T07:44:40;100627.94;;;10.83;65.74
64388;BME280;50709;52.648;4.764;2024-02-26T07:47:10;100640.13;;;10.71;66.69
64388;BME280;50709;52.648;4.764;2024-02-26T07:49:36;100637.53;;;10.51;66.45
64388;BME280;50709;52.648;4.764;2024-02-26T07:52:01;100644.50;;;10.26;67.70
64388;BME280;50709;52.648;4.764;2024-02-26T07:54:27;100660.16;;;10.71;66.83
64388;BME280;50709;52.648;4.764;2024-02-26T07:56:52;100650.63;;;10.64;66.65
64388;BME280;50709;52.648;4.764;2024-02-26T07:59:17;100659.25;;;11.03;65.89
64388;BME280;50709;52.648;4.764;2024-02-26T08:01:43;100665.38;;;10.72;66.64
64388;BME280;50709;52.648;4.764;2024-02-26T08:04:08;100636.66;;;10.12;66.15
64388;BME280;50709;52.648;4.764;2024-02-26T08:06:34;100659.25;;;10.02;66.88
64388;BME280;50709;52.648;4.764;2024-02-26T08:08:59;100650.59;;;10.20;67.06
64388;BME280;50709;52.648;4.764;2024-02-26T08:11:25;100671.47;;;10.33;65.57
64388;BME280;50709;52.648;4.764;2024-02-26T08:13:50;100684.53;;;10.20;67.39
64388;BME280;50709;52.648;4.764;2024-02-26T08:16:15;100691.50;;;10.43;66.79
64388;BME280;50709;52.648;4.764;2024-02-26T08:18:41;100683.63;;;10.04;66.28
64388;BME280;50709;52.648;4.764;2024-02-26T08:21:06;100682.81;;;10.58;67.31
64388;BME280;50709;52.648;4.764;2024-02-26T08:23:33;100691.50;;;10.54;65.67
64388;BME280;50709;52.648;4.764;2024-02-26T08:25:59;100699.31;;;10.32;66.18
64388;BME280;50709;52.648;4.764;2024-02-26T08:28:24;100701.94;;;10.91;64.43
64388;BME280;50709;52.648;4.764;2024-02-26T08:30:50;100713.22;;;10.16;65.59
64388;BME280;50709;52.648;4.764;2024-02-26T08:33:15;100695.84;;;10.80;66.65
64388;BME280;50709;52.648;4.764;2024-02-26T08:35:40;100685.44;;;10.49;65.51
64388;BME280;50709;52.648;4.764;2024-02-26T08:38:06;100699.31;;;10.86;66.17
64388;BME280;50709;52.648;4.764;2024-02-26T08:40:31;100696.75;;;10.51;66.47
64388;BME280;50709;52.648;4.764;2024-02-26T08:42:57;100694.13;;;10.63;66.99
64388;BME280;50709;52.648;4.764;2024-02-26T08:45:22;100705.44;;;10.94;66.05
64388;BME280;50709;52.648;4.764;2024-02-26T08:47:48;100695.00;;;10.71;66.90
64388;BME280;50709;52.648;4.764;2024-02-26T08:50:14;100702.81;;;10.91;66.69
64388;BME280;50709;52.648;4.764;2024-02-26T08:52:39;100699.34;;;10.60;66.62
64388;BME280;50709;52.648;4.764;2024-02-26T08:55:06;100708.94;;;10.73;65.35
64388;BME280;50709;52.648;4.764;2024-02-26T08:57:34;100716.75;;;10.35;64.84
64388;BME280;50709;52.648;4.764;2024-02-26T09:00:00;100719.38;;;10.38;64.89
64388;BME280;50709;52.648;4.764;2024-02-26T09:02:26;100732.44;;;10.70;65.53
64388;BME280;50709;52.648;4.764;2024-02-26T09:04:51;100716.78;;;10.72;64.36
64388;BME280;50709;52.648;4.764;2024-02-26T09:07:19;100725.47;;;11.00;65.61
64388;BME280;50709;52.648;4.764;2024-02-26T09:09:45;100726.31;;;10.62;65.23
64388;BME280;50709;52.648;4.764;2024-02-26T09:12:10;100738.53;;;10.91;65.14
64388;BME280;50709;52.648;4.764;2024-02-26T09:14:36;100738.50;;;11.02;64.79
64388;BME280;50709;52.648;4.764;2024-02-26T09:17:01;100752.47;;;10.65;65.31
64388;BME280;50709;52.648;4.764;2024-02-26T09:19:26;100759.41;;;10.40;66.64
64388;BME280;50709;52.648;4.764;2024-02-26T09:21:54;100761.16;;;10.69;66.08
64388;BME280;50709;52.648;4.764;2024-02-26T09:24:24;100782.94;;;10.57;65.72
64388;BME280;50709;52.648;4.764;2024-02-26T09:26:49;100770.72;;;10.48;64.67
64388;BME280;50709;52.648;4.764;2024-02-26T09:29:15;100776.84;;;10.70;65.50
64388;BME280;50709;52.648;4.764;2024-02-26T09:31:40;100776.81;;;10.67;66.76
64388;BME280;50709;52.648;4.764;2024-02-26T09:34:07;100783.72;;;10.20;66.74
64388;BME280;50709;52.648;4.764;2024-02-26T09:36:33;100786.41;;;10.82;65.93
64388;BME280;50709;52.648;4.764;2024-02-26T09:38:58;100782.03;;;10.47;65.54
64388;BME280;50709;52.648;4.764;2024-02-26T09:41:29;100791.59;;;10.37;65.19
64388;BME280;50709;52.648;4.764;2024-02-26T09:43:56;100793.38;;;10.46;66.77
64388;BME280;50709;52.648;4.764;2024-02-26T09:46:25;100807.25;;;10.37;65.14
64388;BME280;50709;52.648;4.764;2024-02-26T09:48:51;100801.16;;;10.38;67.15
64388;BME280;50709;52.648;4.764;2024-02-26T09:51:17;100802.09;;;10.71;65.64
64388;BME280;50709;52.648;4.764;2024-02-26T09:53:43;100804.72;;;10.65;64.76
64388;BME280;50709;52.648;4.764;2024-02-26T09:56:11;100803.84;;;10.85;64.14
64388;BME280;50709;52.648;4.764;2024-02-26T09:58:37;100801.22;;;10.83;65.47
64388;BME280;50709;52.648;4.764;2024-02-26T10:01:07;100819.50;;;10.96;65.77
64388;BME280;50709;52.648;4.764;2024-02-26T10:03:39;100815.16;;;10.93;65.51
64388;BME280;50709;52.648;4.764;2024-02-26T10:06:10;100819.53;;;11.02;65.42
64388;BME280;50709;52.648;4.764;2024-02-26T10:08:36;100824.75;;;10.82;66.48
64388;BME280;50709;52.648;4.764;2024-02-26T10:11:08;100834.31;;;10.90;65.22
64388;BME280;50709;52.648;4.764;2024-02-26T10:13:36;100833.47;;;10.87;65.61
64388;BME280;50709;52.648;4.764;2024-02-26T10:16:02;100825.59;;;10.82;65.71
64388;BME280;50709;52.648;4.764;2024-02-26T10:18:51;100848.25;;;10.86;64.83
64388;BME280;50709;52.648;4.764;2024-02-26T10:21:20;100837.78;;;10.66;65.68
64388;BME280;50709;52.648;4.764;2024-02-26T10:23:46;100852.59;;;10.89;64.99
64388;BME280;50709;52.648;4.764;2024-02-26T10:26:13;100843.88;;;10.64;64.50
64388;BME280;50709;52.648;4.764;2024-02-26T10:28:39;100857.84;;;10.86;65.78
64388;BME280;50709;52.648;4.764;2024-02-26T10:31:05;100856.13;;;11.02;64.29
64388;BME280;50709;52.648;4.764;2024-02-26T10:33:33;100793.41;;;10.99;63.36
64388;BME280;50709;52.648;4.764;2024-02-26T10:36:01;100854.38;;;11.30;64.57
64388;BME280;50709;52.648;4.764;2024-02-26T10:38:26;100877.84;;;10.73;62.92
64388;BME280;50709;52.648;4.764;2024-02-26T10:40:52;100870.91;;;11.10;63.58
64388;BME280;50709;52.648;4.764;2024-02-26T10:43:17;100863.09;;;11.23;64.84
64388;BME280;50709;52.648;4.764;2024-02-26T10:45:43;100879.63;;;10.99;64.92
64388;BME280;50709;52.648;4.764;2024-02-26T10:48:13;100883.09;;;10.76;64.32
64388;BME280;50709;52.648;4.764;2024-02-26T10:50:39;100881.31;;;10.66;65.86
64388;BME280;50709;52.648;4.764;2024-02-26T10:53:21;100883.13;;;10.96;63.76
64388;BME280;50709;52.648;4.764;2024-02-26T10:56:03;100869.16;;;10.80;63.31
64388;BME280;50709;52.648;4.764;2024-02-26T10:58:31;100895.28;;;10.77;63.78
64388;BME280;50709;52.648;4.764;2024-02-26T11:00:57;100879.41;;;10.31;63.79
64388;BME280;50709;52.648;4.764;2024-02-26T11:03:22;100898.72;;;10.65;64.76
64388;BME280;50709;52.648;4.764;2024-02-26T11:05:49;100910.81;;;10.37;65.71
64388;BME280;50709;52.648;4.764;2024-02-26T11:08:21;100909.25;;;11.02;63.51
64388;BME280;50709;52.648;4.764;2024-02-26T11:10:50;100908.38;;;11.28;63.89
64388;BME280;50709;52.648;4.764;2024-02-26T11:13:18;100921.47;;;11.45;63.82
64388;BME280;50709;52.648;4.764;2024-02-26T11:15:46;100922.34;;;11.08;63.19
64388;BME280;50709;52.648;4.764;2024-02-26T11:18:13;100915.28;;;10.75;64.86
64388;BME280;50709;52.648;4.764;2024-02-26T11:20:40;100910.06;;;10.73;64.00
64388;BME280;50709;52.648;4.764;2024-02-26T11:23:07;100921.47;;;11.25;63.33
64388;BME280;50709;52.648;4.764;2024-02-26T11:25:34;100918.88;;;11.20;64.53
64388;BME280;50709;52.648;4.764;2024-02-26T11:28:04;100921.47;;;11.11;64.05
64388;BME280;50709;52.648;4.764;2024-02-26T11:30:36;100921.38;;;10.66;63.53
64388;BME280;50709;52.648;4.764;2024-02-26T11:33:06;100906.63;;;11.15;64.71
64388;BME280;50709;52.648;4.764;2024-02-26T11:35:34;100919.66;;;10.81;62.92
64388;BME280;50709;52.648;4.764;2024-02-26T11:38:01;100931.00;;;10.98;64.06
64388;BME280;50709;52.648;4.764;2024-02-26T11:40:27;100921.38;;;10.66;61.93
64388;BME280;50709;52.648;4.764;2024-02-26T11:42:53;100925.75;;;10.80;64.42
64388;BME280;50709;52.648;4.764;2024-02-26T11:48:12;100930.16;;;11.07;64.27
64388;BME280;50709;52.648;4.764;2024-02-26T11:50:47;100905.78;;;11.13;63.56
64388;BME280;50709;52.648;4.764;2024-02-26T11:53:33;100915.34;;;11.03;63.60
64388;BME280;50709;52.648;4.764;2024-02-26T11:58:53;100933.66;;;11.21;62.90
64388;BME280;50709;52.648;4.764;2024-02-26T12:04:07;100931.06;;;11.23;64.10
64388;BME280;50709;52.648;4.764;2024-02-26T12:09:12;100942.38;;;11.47;62.65
64388;BME280;50709;52.648;4.764;2024-02-26T12:11:39;100946.75;;;11.35;64.38
64388;BME280;50709;52.648;4.764;2024-02-26T12:14:07;100951.06;;;11.08;63.52
64388;BME280;50709;52.648;4.764;2024-02-26T12:16:39;100925.72;;;10.61;63.49
64388;BME280;50709;52.648;4.764;2024-02-26T12:19:09;100953.69;;;10.96;64.04
64388;BME280;50709;52.648;4.764;2024-02-26T12:21:36;100967.63;;;11.06;64.10
64388;BME280;50709;52.648;4.764;2024-02-26T12:24:14;100962.34;;;10.81;64.62
64388;BME280;50709;52.648;4.764;2024-02-26T12:26:41;100960.66;;;11.19;64.52
64388;BME280;50709;52.648;4.764;2024-02-26T12:29:07;100971.97;;;11.15;63.72
64388;BME280;50709;52.648;4.764;2024-02-26T12:31:33;100966.75;;;11.05;63.76
64388;BME280;50709;52.648;4.764;2024-02-26T12:34:02;100988.56;;;11.17;64.16
64388;BME280;50709;52.648;4.764;2024-02-26T12:36:28;100959.75;;;10.97;62.99
64388;BME280;50709;52.648;4.764;2024-02-26T12:38:54;100978.13;;;11.23;63.91
64388;BME280;50709;52.648;4.764;2024-02-26T12:41:20;100966.72;;;11.04;62.51
64388;BME280;50709;52.648;4.764;2024-02-26T12:43:46;100967.59;;;10.92;64.46
64388;BME280;50709;52.648;4.764;2024-02-26T12:46:12;100987.72;;;11.27;63.40
64388;BME280;50709;52.648;4.764;2024-02-26T12:48:39;100992.91;;;11.05;62.95
64388;BME280;50709;52.648;4.764;2024-02-26T12:51:05;100996.31;;;10.87;63.03
64388;BME280;50709;52.648;4.764;2024-02-26T12:53:31;101003.41;;;11.32;63.57
64388;BME280;50709;52.648;4.764;2024-02-26T12:55:57;101009.50;;;11.32;63.88
64388;BME280;50709;52.648;4.764;2024-02-26T12:58:23;100984.19;;;11.14;63.58
64388;BME280;50709;52.648;4.764;2024-02-26T13:00:54;101020.00;;;11.48;62.99
64388;BME280;50709;52.648;4.764;2024-02-26T13:03:21;101017.38;;;11.71;63.18
64388;BME280;50709;52.648;4.764;2024-02-26T13:05:48;101020.84;;;11.50;61.58
64388;BME280;50709;52.648;4.764;2024-02-26T13:08:22;101019.09;;;11.56;62.87